Etusivu
METAR-TAF:

METAR-TAF

Lentoasemat :

David Wayne Hooks Memorial Airport

Houston / Tomball, Texas, Yhdysvallat

Leveyspiiri: 30-04-03N, Pituuspiiri: 095-33-22W, korkeus merenpinnasta: 46 m

Tämänhetkinen sää

Tämä raportti tehtiin 1 tunti ja 3 minuuttia sitten, kello 14.53 UTC
Tuuli 7 kn etelästä/kaakosta puuskistuen 17 kn:hen
Lämpötila 28°C
Kosteus 70%
Ilmanpaine 1010 hPa
Näkyvyys: 16.1 km
Hajanaisia pilviä 2700 ft:n korkeudessa

METAR: KDWH 221453Z 16007G17KT 10SM SCT027 28/22 A2983 RMK AO2 SLP100 T02780217 53020

Aika: 10:56 (15:56 UTC)


TAF: puuttuu

Säähavainnot ja -ennusteet yli 4000 lentoasemalta (METAR- ja TAF-raportit).

Käytössä olevat sääasemat on merkitty karttaan keltaisilla ja punaisilla pisteillä.

Aseta hiiri pisteen päälle nähdäksesi sääaseman nimen.

Klikkaa sitten nähdäksesi säähavainnot ja -ennusteet.

Kartan vaihtaminen: klikkaa mustalla rastilla varustettuja vihreitä pisteitä, niin voit zoomata sisään; viivalla varustettua vihreää pistettä, niin voit zoomata ulos tai vihreitä nuolia, niin pääset viereisille kartoille.


METAR-TAF: